sensor_id;sensor_type;location;lat;lon;timestamp;P1;durP1;ratioP1;P2;durP2;ratioP2
7799;SDS011;3944;47.984;7.960;2022-08-07T00:01:44;2.13;;;1.90;;
7799;SDS011;3944;47.984;7.960;2022-08-07T00:04:11;1.95;;;1.85;;
7799;SDS011;3944;47.984;7.960;2022-08-07T00:06:37;1.35;;;1.33;;
7799;SDS011;3944;47.984;7.960;2022-08-07T00:09:04;1.90;;;1.80;;
7799;SDS011;3944;47.984;7.960;2022-08-07T00:11:31;1.70;;;1.60;;
7799;SDS011;3944;47.984;7.960;2022-08-07T00:13:59;1.92;;;1.83;;
7799;SDS011;3944;47.984;7.960;2022-08-07T00:16:26;1.48;;;1.38;;
7799;SDS011;3944;47.984;7.960;2022-08-07T00:18:53;1.52;;;1.42;;
7799;SDS011;3944;47.984;7.960;2022-08-07T00:21:20;1.88;;;1.77;;
7799;SDS011;3944;47.984;7.960;2022-08-07T00:23:47;2.00;;;1.88;;
7799;SDS011;3944;47.984;7.960;2022-08-07T00:26:14;2.03;;;1.92;;
7799;SDS011;3944;47.984;7.960;2022-08-07T00:28:41;2.08;;;1.92;;
7799;SDS011;3944;47.984;7.960;2022-08-07T00:31:10;1.63;;;1.30;;
7799;SDS011;3944;47.984;7.960;2022-08-07T00:33:37;2.13;;;1.90;;
7799;SDS011;3944;47.984;7.960;2022-08-07T00:36:06;1.42;;;1.40;;
7799;SDS011;3944;47.984;7.960;2022-08-07T00:38:34;1.60;;;1.50;;
7799;SDS011;3944;47.984;7.960;2022-08-07T00:41:02;2.15;;;2.00;;
7799;SDS011;3944;47.984;7.960;2022-08-07T00:43:29;2.10;;;2.00;;
7799;SDS011;3944;47.984;7.960;2022-08-07T00:45:57;3.75;;;1.90;;
7799;SDS011;3944;47.984;7.960;2022-08-07T00:48:25;1.90;;;1.80;;
7799;SDS011;3944;47.984;7.960;2022-08-07T00:50:52;2.13;;;1.75;;
7799;SDS011;3944;47.984;7.960;2022-08-07T00:53:20;1.45;;;1.35;;
7799;SDS011;3944;47.984;7.960;2022-08-07T00:55:47;1.90;;;1.80;;
7799;SDS011;3944;47.984;7.960;2022-08-07T00:58:14;1.90;;;1.80;;
7799;SDS011;3944;47.984;7.960;2022-08-07T01:00:43;1.58;;;1.48;;
7799;SDS011;3944;47.984;7.960;2022-08-07T01:03:10;1.75;;;1.65;;
7799;SDS011;3944;47.984;7.960;2022-08-07T01:05:38;1.70;;;1.60;;
7799;SDS011;3944;47.984;7.960;2022-08-07T01:08:07;1.80;;;1.70;;
7799;SDS011;3944;47.984;7.960;2022-08-07T01:10:34;1.83;;;1.73;;
7799;SDS011;3944;47.984;7.960;2022-08-07T01:13:02;1.55;;;1.45;;
7799;SDS011;3944;47.984;7.960;2022-08-07T01:15:29;1.83;;;1.73;;
7799;SDS011;3944;47.984;7.960;2022-08-07T01:17:59;1.40;;;1.40;;
7799;SDS011;3944;47.984;7.960;2022-08-07T01:20:42;2.45;;;1.48;;
7799;SDS011;3944;47.984;7.960;2022-08-07T01:23:16;1.80;;;1.70;;
7799;SDS011;3944;47.984;7.960;2022-08-07T01:25:44;1.30;;;1.30;;
7799;SDS011;3944;47.984;7.960;2022-08-07T01:28:11;1.85;;;1.75;;
7799;SDS011;3944;47.984;7.960;2022-08-07T01:30:39;1.67;;;1.58;;
7799;SDS011;3944;47.984;7.960;2022-08-07T01:33:06;1.60;;;1.50;;
7799;SDS011;3944;47.984;7.960;2022-08-07T01:35:33;1.40;;;1.35;;
7799;SDS011;3944;47.984;7.960;2022-08-07T01:38:01;5.40;;;2.05;;
7799;SDS011;3944;47.984;7.960;2022-08-07T01:40:29;1.70;;;1.60;;
7799;SDS011;3944;47.984;7.960;2022-08-07T01:42:58;1.60;;;1.50;;
7799;SDS011;3944;47.984;7.960;2022-08-07T01:45:25;1.75;;;1.65;;
7799;SDS011;3944;47.984;7.960;2022-08-07T01:47:52;2.00;;;1.90;;
7799;SDS011;3944;47.984;7.960;2022-08-07T01:50:19;2.22;;;2.03;;
7799;SDS011;3944;47.984;7.960;2022-08-07T01:52:47;1.58;;;1.50;;
7799;SDS011;3944;47.984;7.960;2022-08-07T01:55:17;3.08;;;1.90;;
7799;SDS011;3944;47.984;7.960;2022-08-07T01:57:48;1.73;;;1.63;;
7799;SDS011;3944;47.984;7.960;2022-08-07T02:00:20;2.05;;;1.90;;
7799;SDS011;3944;47.984;7.960;2022-08-07T02:02:49;1.83;;;1.73;;
7799;SDS011;3944;47.984;7.960;2022-08-07T02:05:22;2.28;;;2.08;;
7799;SDS011;3944;47.984;7.960;2022-08-07T02:07:54;2.00;;;1.90;;
7799;SDS011;3944;47.984;7.960;2022-08-07T02:10:23;2.08;;;1.98;;
7799;SDS011;3944;47.984;7.960;2022-08-07T02:12:53;2.13;;;2.03;;
7799;SDS011;3944;47.984;7.960;2022-08-07T02:15:24;2.42;;;2.22;;
7799;SDS011;3944;47.984;7.960;2022-08-07T02:17:52;1.92;;;1.83;;
7799;SDS011;3944;47.984;7.960;2022-08-07T02:20:20;2.10;;;2.00;;
7799;SDS011;3944;47.984;7.960;2022-08-07T02:22:49;1.83;;;1.73;;
7799;SDS011;3944;47.984;7.960;2022-08-07T02:25:21;2.13;;;2.03;;
7799;SDS011;3944;47.984;7.960;2022-08-07T02:27:49;1.67;;;1.58;;
7799;SDS011;3944;47.984;7.960;2022-08-07T02:30:18;1.75;;;1.65;;
7799;SDS011;3944;47.984;7.960;2022-08-07T02:32:46;1.88;;;1.77;;
7799;SDS011;3944;47.984;7.960;2022-08-07T02:35:14;1.63;;;1.52;;
7799;SDS011;3944;47.984;7.960;2022-08-07T02:37:43;2.00;;;1.90;;
7799;SDS011;3944;47.984;7.960;2022-08-07T02:40:11;2.42;;;2.25;;
7799;SDS011;3944;47.984;7.960;2022-08-07T02:42:39;1.90;;;1.80;;
7799;SDS011;3944;47.984;7.960;2022-08-07T02:45:09;1.92;;;1.83;;
7799;SDS011;3944;47.984;7.960;2022-08-07T02:47:40;2.50;;;2.30;;
7799;SDS011;3944;47.984;7.960;2022-08-07T02:50:08;1.90;;;1.80;;
7799;SDS011;3944;47.984;7.960;2022-08-07T02:52:36;2.15;;;2.05;;
7799;SDS011;3944;47.984;7.960;2022-08-07T02:55:06;2.78;;;2.58;;
7799;SDS011;3944;47.984;7.960;2022-08-07T02:57:37;2.83;;;1.98;;
7799;SDS011;3944;47.984;7.960;2022-08-07T03:00:06;1.80;;;1.67;;
7799;SDS011;3944;47.984;7.960;2022-08-07T03:02:34;2.03;;;1.92;;
7799;SDS011;3944;47.984;7.960;2022-08-07T03:05:05;2.15;;;2.05;;
7799;SDS011;3944;47.984;7.960;2022-08-07T03:07:33;2.20;;;2.10;;
7799;SDS011;3944;47.984;7.960;2022-08-07T03:10:01;2.22;;;2.08;;
7799;SDS011;3944;47.984;7.960;2022-08-07T03:12:29;2.33;;;2.22;;
7799;SDS011;3944;47.984;7.960;2022-08-07T03:14:57;3.55;;;2.30;;
7799;SDS011;3944;47.984;7.960;2022-08-07T03:17:25;2.22;;;2.05;;
7799;SDS011;3944;47.984;7.960;2022-08-07T03:19:52;3.42;;;2.20;;
7799;SDS011;3944;47.984;7.960;2022-08-07T03:22:21;2.88;;;2.38;;
7799;SDS011;3944;47.984;7.960;2022-08-07T03:24:49;2.38;;;2.17;;
7799;SDS011;3944;47.984;7.960;2022-08-07T03:27:16;2.33;;;2.15;;
7799;SDS011;3944;47.984;7.960;2022-08-07T03:29:45;2.28;;;2.17;;
7799;SDS011;3944;47.984;7.960;2022-08-07T03:32:14;1.65;;;1.63;;
7799;SDS011;3944;47.984;7.960;2022-08-07T03:34:45;2.10;;;1.95;;
7799;SDS011;3944;47.984;7.960;2022-08-07T03:37:15;2.20;;;2.00;;
7799;SDS011;3944;47.984;7.960;2022-08-07T03:39:46;2.45;;;2.28;;
7799;SDS011;3944;47.984;7.960;2022-08-07T03:42:14;2.13;;;2.03;;
7799;SDS011;3944;47.984;7.960;2022-08-07T03:44:42;3.65;;;2.58;;
7799;SDS011;3944;47.984;7.960;2022-08-07T03:47:09;2.20;;;2.10;;
7799;SDS011;3944;47.984;7.960;2022-08-07T03:49:37;2.53;;;2.33;;
7799;SDS011;3944;47.984;7.960;2022-08-07T03:52:05;2.63;;;2.42;;
7799;SDS011;3944;47.984;7.960;2022-08-07T03:54:34;2.05;;;1.95;;
7799;SDS011;3944;47.984;7.960;2022-08-07T03:57:03;2.00;;;1.90;;
7799;SDS011;3944;47.984;7.960;2022-08-07T03:59:31;2.30;;;2.13;;
7799;SDS011;3944;47.984;7.960;2022-08-07T04:01:58;3.13;;;2.92;;
7799;SDS011;3944;47.984;7.960;2022-08-07T04:04:25;3.08;;;2.25;;
7799;SDS011;3944;47.984;7.960;2022-08-07T04:06:52;2.65;;;2.45;;
7799;SDS011;3944;47.984;7.960;2022-08-07T04:09:19;5.00;;;2.08;;
7799;SDS011;3944;47.984;7.960;2022-08-07T04:11:46;3.50;;;2.40;;
7799;SDS011;3944;47.984;7.960;2022-08-07T04:14:16;2.25;;;1.95;;
7799;SDS011;3944;47.984;7.960;2022-08-07T04:16:44;2.53;;;2.33;;
7799;SDS011;3944;47.984;7.960;2022-08-07T04:19:13;2.58;;;2.38;;
7799;SDS011;3944;47.984;7.960;2022-08-07T04:21:40;2.85;;;2.55;;
7799;SDS011;3944;47.984;7.960;2022-08-07T04:24:07;2.33;;;2.13;;
7799;SDS011;3944;47.984;7.960;2022-08-07T04:26:37;2.05;;;1.95;;
7799;SDS011;3944;47.984;7.960;2022-08-07T04:29:05;1.92;;;1.83;;
7799;SDS011;3944;47.984;7.960;2022-08-07T04:31:34;3.15;;;2.42;;
7799;SDS011;3944;47.984;7.960;2022-08-07T04:34:03;2.10;;;2.00;;
7799;SDS011;3944;47.984;7.960;2022-08-07T04:36:31;2.80;;;2.55;;
7799;SDS011;3944;47.984;7.960;2022-08-07T04:38:59;2.10;;;2.00;;
7799;SDS011;3944;47.984;7.960;2022-08-07T04:41:26;2.25;;;2.15;;
7799;SDS011;3944;47.984;7.960;2022-08-07T04:43:53;2.28;;;2.08;;
7799;SDS011;3944;47.984;7.960;2022-08-07T04:46:22;2.53;;;2.10;;
7799;SDS011;3944;47.984;7.960;2022-08-07T04:48:59;2.05;;;1.95;;
7799;SDS011;3944;47.984;7.960;2022-08-07T04:51:32;2.10;;;2.00;;
7799;SDS011;3944;47.984;7.960;2022-08-07T04:54:07;2.10;;;2.00;;
7799;SDS011;3944;47.984;7.960;2022-08-07T04:56:41;2.20;;;2.08;;
7799;SDS011;3944;47.984;7.960;2022-08-07T04:59:14;2.60;;;2.40;;
7799;SDS011;3944;47.984;7.960;2022-08-07T05:01:52;2.72;;;2.53;;
7799;SDS011;3944;47.984;7.960;2022-08-07T05:04:30;2.17;;;2.00;;
7799;SDS011;3944;47.984;7.960;2022-08-07T05:07:04;2.60;;;2.40;;
7799;SDS011;3944;47.984;7.960;2022-08-07T05:09:37;2.78;;;2.58;;
7799;SDS011;3944;47.984;7.960;2022-08-07T05:12:08;2.05;;;1.95;;
7799;SDS011;3944;47.984;7.960;2022-08-07T05:14:40;2.00;;;1.90;;
7799;SDS011;3944;47.984;7.960;2022-08-07T05:17:10;4.90;;;3.42;;
7799;SDS011;3944;47.984;7.960;2022-08-07T05:19:42;2.38;;;2.25;;
7799;SDS011;3944;47.984;7.960;2022-08-07T05:22:12;2.25;;;2.05;;
7799;SDS011;3944;47.984;7.960;2022-08-07T05:24:41;2.58;;;2.38;;
7799;SDS011;3944;47.984;7.960;2022-08-07T05:27:11;2.35;;;2.25;;
7799;SDS011;3944;47.984;7.960;2022-08-07T05:29:40;1.70;;;1.60;;
7799;SDS011;3944;47.984;7.960;2022-08-07T05:32:09;1.60;;;1.50;;
7799;SDS011;3944;47.984;7.960;2022-08-07T05:34:39;1.70;;;1.60;;
7799;SDS011;3944;47.984;7.960;2022-08-07T05:37:08;1.88;;;1.77;;
7799;SDS011;3944;47.984;7.960;2022-08-07T05:39:35;1.42;;;1.33;;
7799;SDS011;3944;47.984;7.960;2022-08-07T05:42:03;1.45;;;1.45;;
7799;SDS011;3944;47.984;7.960;2022-08-07T05:44:32;1.85;;;1.75;;
7799;SDS011;3944;47.984;7.960;2022-08-07T05:47:00;2.08;;;1.98;;
7799;SDS011;3944;47.984;7.960;2022-08-07T05:49:28;1.60;;;1.50;;
7799;SDS011;3944;47.984;7.960;2022-08-07T05:51:57;1.13;;;1.13;;
7799;SDS011;3944;47.984;7.960;2022-08-07T05:54:23;1.50;;;1.40;;
7799;SDS011;3944;47.984;7.960;2022-08-07T05:56:50;2.25;;;2.08;;
7799;SDS011;3944;47.984;7.960;2022-08-07T05:59:20;1.75;;;1.65;;
7799;SDS011;3944;47.984;7.960;2022-08-07T06:01:50;1.85;;;1.75;;
7799;SDS011;3944;47.984;7.960;2022-08-07T06:04:18;2.13;;;1.98;;
7799;SDS011;3944;47.984;7.960;2022-08-07T06:06:46;1.50;;;1.40;;
7799;SDS011;3944;47.984;7.960;2022-08-07T06:09:15;1.40;;;1.40;;
7799;SDS011;3944;47.984;7.960;2022-08-07T06:11:42;1.70;;;1.60;;
7799;SDS011;3944;47.984;7.960;2022-08-07T06:14:09;1.40;;;1.40;;
7799;SDS011;3944;47.984;7.960;2022-08-07T06:16:37;1.55;;;1.48;;
7799;SDS011;3944;47.984;7.960;2022-08-07T06:19:04;1.45;;;1.38;;
7799;SDS011;3944;47.984;7.960;2022-08-07T06:21:33;1.73;;;1.60;;
7799;SDS011;3944;47.984;7.960;2022-08-07T06:24:02;1.00;;;1.00;;
7799;SDS011;3944;47.984;7.960;2022-08-07T06:26:30;1.33;;;1.20;;
7799;SDS011;3944;47.984;7.960;2022-08-07T06:28:57;1.75;;;1.65;;
7799;SDS011;3944;47.984;7.960;2022-08-07T06:31:24;1.27;;;1.27;;
7799;SDS011;3944;47.984;7.960;2022-08-07T06:33:51;2.97;;;1.85;;
7799;SDS011;3944;47.984;7.960;2022-08-07T06:36:18;1.55;;;1.45;;
7799;SDS011;3944;47.984;7.960;2022-08-07T06:38:45;2.50;;;2.33;;
7799;SDS011;3944;47.984;7.960;2022-08-07T06:41:14;1.90;;;1.80;;
7799;SDS011;3944;47.984;7.960;2022-08-07T06:43:47;2.28;;;1.80;;
7799;SDS011;3944;47.984;7.960;2022-08-07T06:46:15;1.70;;;1.60;;
7799;SDS011;3944;47.984;7.960;2022-08-07T06:48:42;2.10;;;1.90;;
7799;SDS011;3944;47.984;7.960;2022-08-07T06:51:09;2.05;;;1.90;;
7799;SDS011;3944;47.984;7.960;2022-08-07T06:53:39;1.85;;;1.75;;
7799;SDS011;3944;47.984;7.960;2022-08-07T06:56:07;1.25;;;1.25;;
7799;SDS011;3944;47.984;7.960;2022-08-07T06:58:35;1.38;;;1.27;;
7799;SDS011;3944;47.984;7.960;2022-08-07T07:01:06;1.40;;;1.30;;
7799;SDS011;3944;47.984;7.960;2022-08-07T07:03:36;1.60;;;1.50;;
7799;SDS011;3944;47.984;7.960;2022-08-07T07:06:05;1.50;;;1.40;;
7799;SDS011;3944;47.984;7.960;2022-08-07T07:08:34;1.77;;;1.60;;
7799;SDS011;3944;47.984;7.960;2022-08-07T07:11:02;1.52;;;1.42;;
7799;SDS011;3944;47.984;7.960;2022-08-07T07:13:30;1.73;;;1.63;;
7799;SDS011;3944;47.984;7.960;2022-08-07T07:16:01;1.90;;;1.80;;
7799;SDS011;3944;47.984;7.960;2022-08-07T07:18:42;1.27;;;1.27;;
7799;SDS011;3944;47.984;7.960;2022-08-07T07:21:14;1.30;;;1.20;;
7799;SDS011;3944;47.984;7.960;2022-08-07T07:23:44;1.45;;;1.35;;
7799;SDS011;3944;47.984;7.960;2022-08-07T07:26:12;1.42;;;1.33;;
7799;SDS011;3944;47.984;7.960;2022-08-07T07:28:43;1.67;;;1.58;;
7799;SDS011;3944;47.984;7.960;2022-08-07T07:31:15;2.25;;;1.52;;
7799;SDS011;3944;47.984;7.960;2022-08-07T07:33:50;1.83;;;1.73;;
7799;SDS011;3944;47.984;7.960;2022-08-07T07:36:21;1.52;;;1.42;;
7799;SDS011;3944;47.984;7.960;2022-08-07T07:38:49;0.98;;;0.98;;
7799;SDS011;3944;47.984;7.960;2022-08-07T07:41:17;1.67;;;1.58;;
7799;SDS011;3944;47.984;7.960;2022-08-07T07:43:47;1.23;;;1.15;;
7799;SDS011;3944;47.984;7.960;2022-08-07T07:46:16;2.75;;;1.98;;
7799;SDS011;3944;47.984;7.960;2022-08-07T07:48:46;1.70;;;1.33;;
7799;SDS011;3944;47.984;7.960;2022-08-07T07:51:16;1.17;;;1.15;;
7799;SDS011;3944;47.984;7.960;2022-08-07T07:53:46;1.02;;;1.02;;
7799;SDS011;3944;47.984;7.960;2022-08-07T07:56:14;1.30;;;1.20;;
7799;SDS011;3944;47.984;7.960;2022-08-07T07:58:42;0.98;;;0.98;;
7799;SDS011;3944;47.984;7.960;2022-08-07T08:01:11;0.90;;;0.90;;
7799;SDS011;3944;47.984;7.960;2022-08-07T08:03:40;0.93;;;0.93;;
7799;SDS011;3944;47.984;7.960;2022-08-07T08:06:10;0.98;;;0.98;;
7799;SDS011;3944;47.984;7.960;2022-08-07T08:08:40;1.23;;;1.20;;
7799;SDS011;3944;47.984;7.960;2022-08-07T08:11:09;1.10;;;1.00;;
7799;SDS011;3944;47.984;7.960;2022-08-07T08:13:38;1.00;;;1.00;;
7799;SDS011;3944;47.984;7.960;2022-08-07T08:16:07;1.23;;;1.20;;
7799;SDS011;3944;47.984;7.960;2022-08-07T08:18:37;1.38;;;1.20;;
7799;SDS011;3944;47.984;7.960;2022-08-07T08:21:04;1.20;;;1.20;;
7799;SDS011;3944;47.984;7.960;2022-08-07T08:23:53;1.00;;;0.93;;
7799;SDS011;3944;47.984;7.960;2022-08-07T08:26:38;1.55;;;1.45;;
7799;SDS011;3944;47.984;7.960;2022-08-07T08:29:24;0.80;;;0.80;;
7799;SDS011;3944;47.984;7.960;2022-08-07T08:31:52;1.20;;;1.20;;
7799;SDS011;3944;47.984;7.960;2022-08-07T08:34:21;1.17;;;1.17;;
7799;SDS011;3944;47.984;7.960;2022-08-07T08:36:49;1.67;;;1.58;;
7799;SDS011;3944;47.984;7.960;2022-08-07T08:39:19;1.35;;;1.27;;
7799;SDS011;3944;47.984;7.960;2022-08-07T08:41:48;0.90;;;0.90;;
7799;SDS011;3944;47.984;7.960;2022-08-07T08:44:21;1.00;;;1.00;;
7799;SDS011;3944;47.984;7.960;2022-08-07T08:46:53;1.33;;;1.25;;
7799;SDS011;3944;47.984;7.960;2022-08-07T08:49:31;1.45;;;1.33;;
7799;SDS011;3944;47.984;7.960;2022-08-07T08:52:05;1.35;;;1.33;;
7799;SDS011;3944;47.984;7.960;2022-08-07T08:54:44;1.20;;;1.20;;
7799;SDS011;3944;47.984;7.960;2022-08-07T08:57:18;1.15;;;1.05;;
7799;SDS011;3944;47.984;7.960;2022-08-07T08:59:55;2.15;;;1.55;;
7799;SDS011;3944;47.984;7.960;2022-08-07T09:02:30;1.50;;;1.05;;
7799;SDS011;3944;47.984;7.960;2022-08-07T09:05:03;0.93;;;0.93;;
7799;SDS011;3944;47.984;7.960;2022-08-07T09:07:50;1.25;;;1.15;;
7799;SDS011;3944;47.984;7.960;2022-08-07T09:10:28;1.00;;;1.00;;
7799;SDS011;3944;47.984;7.960;2022-08-07T09:13:02;0.90;;;0.90;;
7799;SDS011;3944;47.984;7.960;2022-08-07T09:15:39;1.33;;;1.27;;
7799;SDS011;3944;47.984;7.960;2022-08-07T09:18:13;0.80;;;0.80;;
7799;SDS011;3944;47.984;7.960;2022-08-07T09:20:47;1.23;;;1.15;;
7799;SDS011;3944;47.984;7.960;2022-08-07T09:23:25;1.40;;;1.30;;
7799;SDS011;3944;47.984;7.960;2022-08-07T09:26:04;1.25;;;1.15;;
7799;SDS011;3944;47.984;7.960;2022-08-07T09:28:42;0.95;;;0.95;;
7799;SDS011;3944;47.984;7.960;2022-08-07T09:31:14;1.35;;;1.30;;
7799;SDS011;3944;47.984;7.960;2022-08-07T09:33:56;0.95;;;0.95;;
7799;SDS011;3944;47.984;7.960;2022-08-07T09:36:32;1.30;;;1.20;;
7799;SDS011;3944;47.984;7.960;2022-08-07T09:39:04;0.82;;;0.82;;
7799;SDS011;3944;47.984;7.960;2022-08-07T09:41:45;1.13;;;1.13;;
7799;SDS011;3944;47.984;7.960;2022-08-07T09:44:18;1.17;;;1.08;;
7799;SDS011;3944;47.984;7.960;2022-08-07T09:47:02;1.20;;;1.20;;
7799;SDS011;3944;47.984;7.960;2022-08-07T09:49:41;1.10;;;1.10;;
7799;SDS011;3944;47.984;7.960;2022-08-07T09:52:19;1.27;;;1.20;;
7799;SDS011;3944;47.984;7.960;2022-08-07T09:54:53;1.08;;;1.08;;
7799;SDS011;3944;47.984;7.960;2022-08-07T09:57:37;0.85;;;0.85;;
7799;SDS011;3944;47.984;7.960;2022-08-07T10:00:23;1.05;;;0.95;;
7799;SDS011;3944;47.984;7.960;2022-08-07T10:02:57;0.80;;;0.80;;
7799;SDS011;3944;47.984;7.960;2022-08-07T10:05:43;1.25;;;1.15;;
7799;SDS011;3944;47.984;7.960;2022-08-07T10:11:43;0.85;;;0.85;;
7799;SDS011;3944;47.984;7.960;2022-08-07T10:14:32;1.38;;;1.17;;
7799;SDS011;3944;47.984;7.960;2022-08-07T10:17:11;0.90;;;0.90;;
7799;SDS011;3944;47.984;7.960;2022-08-07T10:20:07;1.10;;;1.10;;
7799;SDS011;3944;47.984;7.960;2022-08-07T10:22:47;1.00;;;1.00;;
7799;SDS011;3944;47.984;7.960;2022-08-07T10:25:27;1.05;;;1.05;;
7799;SDS011;3944;47.984;7.960;2022-08-07T10:28:08;1.10;;;1.10;;
7799;SDS011;3944;47.984;7.960;2022-08-07T10:30:51;1.20;;;1.10;;
7799;SDS011;3944;47.984;7.960;2022-08-07T10:33:37;1.95;;;1.33;;
7799;SDS011;3944;47.984;7.960;2022-08-07T10:36:16;0.95;;;0.95;;
7799;SDS011;3944;47.984;7.960;2022-08-07T10:38:53;0.77;;;0.77;;
7799;SDS011;3944;47.984;7.960;2022-08-07T10:41:26;0.98;;;0.98;;
7799;SDS011;3944;47.984;7.960;2022-08-07T10:43:59;0.95;;;0.95;;
7799;SDS011;3944;47.984;7.960;2022-08-07T10:46:37;0.90;;;0.90;;
7799;SDS011;3944;47.984;7.960;2022-08-07T10:49:09;0.90;;;0.90;;
7799;SDS011;3944;47.984;7.960;2022-08-07T10:51:45;1.00;;;1.00;;
7799;SDS011;3944;47.984;7.960;2022-08-07T10:54:20;0.90;;;0.90;;
7799;SDS011;3944;47.984;7.960;2022-08-07T10:57:02;1.00;;;1.00;;
7799;SDS011;3944;47.984;7.960;2022-08-07T10:59:40;1.05;;;1.05;;
7799;SDS011;3944;47.984;7.960;2022-08-07T11:02:27;2.28;;;1.13;;
7799;SDS011;3944;47.984;7.960;2022-08-07T11:05:04;0.82;;;0.82;;
7799;SDS011;3944;47.984;7.960;2022-08-07T11:07:39;0.90;;;0.90;;
7799;SDS011;3944;47.984;7.960;2022-08-07T11:10:14;1.27;;;1.25;;
7799;SDS011;3944;47.984;7.960;2022-08-07T11:12:48;1.00;;;1.00;;
7799;SDS011;3944;47.984;7.960;2022-08-07T11:15:22;1.20;;;1.10;;
7799;SDS011;3944;47.984;7.960;2022-08-07T11:17:58;1.10;;;1.10;;
7799;SDS011;3944;47.984;7.960;2022-08-07T11:20:34;1.00;;;1.00;;
7799;SDS011;3944;47.984;7.960;2022-08-07T11:23:20;0.90;;;0.82;;
7799;SDS011;3944;47.984;7.960;2022-08-07T11:25:51;3.55;;;1.38;;
7799;SDS011;3944;47.984;7.960;2022-08-07T11:28:24;0.75;;;0.75;;
7799;SDS011;3944;47.984;7.960;2022-08-07T11:30:57;1.00;;;1.00;;
7799;SDS011;3944;47.984;7.960;2022-08-07T11:33:37;1.02;;;1.02;;
7799;SDS011;3944;47.984;7.960;2022-08-07T11:36:16;0.90;;;0.90;;
7799;SDS011;3944;47.984;7.960;2022-08-07T11:38:56;0.70;;;0.70;;
7799;SDS011;3944;47.984;7.960;2022-08-07T11:41:32;1.05;;;1.00;;
7799;SDS011;3944;47.984;7.960;2022-08-07T11:44:07;1.10;;;1.05;;
7799;SDS011;3944;47.984;7.960;2022-08-07T11:46:44;1.08;;;1.08;;
7799;SDS011;3944;47.984;7.960;2022-08-07T11:49:45;0.80;;;0.80;;
7799;SDS011;3944;47.984;7.960;2022-08-07T11:52:35;1.10;;;1.00;;
7799;SDS011;3944;47.984;7.960;2022-08-07T11:55:12;1.00;;;1.00;;
7799;SDS011;3944;47.984;7.960;2022-08-07T11:58:01;1.00;;;0.98;;
7799;SDS011;3944;47.984;7.960;2022-08-07T12:00:37;1.13;;;1.10;;
7799;SDS011;3944;47.984;7.960;2022-08-07T12:03:24;1.15;;;1.05;;
7799;SDS011;3944;47.984;7.960;2022-08-07T12:06:09;1.10;;;1.00;;
7799;SDS011;3944;47.984;7.960;2022-08-07T12:08:46;0.70;;;0.70;;
7799;SDS011;3944;47.984;7.960;2022-08-07T12:11:19;1.05;;;1.05;;
7799;SDS011;3944;47.984;7.960;2022-08-07T12:13:51;0.73;;;0.73;;
7799;SDS011;3944;47.984;7.960;2022-08-07T12:16:24;0.60;;;0.60;;
7799;SDS011;3944;47.984;7.960;2022-08-07T12:18:54;1.25;;;1.17;;
7799;SDS011;3944;47.984;7.960;2022-08-07T12:21:34;1.08;;;1.08;;
7799;SDS011;3944;47.984;7.960;2022-08-07T12:24:09;0.70;;;0.70;;
7799;SDS011;3944;47.984;7.960;2022-08-07T12:26:43;0.82;;;0.82;;
7799;SDS011;3944;47.984;7.960;2022-08-07T12:29:15;0.88;;;0.88;;
7799;SDS011;3944;47.984;7.960;2022-08-07T12:31:46;1.13;;;1.10;;
7799;SDS011;3944;47.984;7.960;2022-08-07T12:34:22;1.02;;;1.02;;
7799;SDS011;3944;47.984;7.960;2022-08-07T12:36:52;0.88;;;0.88;;
7799;SDS011;3944;47.984;7.960;2022-08-07T12:39:22;1.20;;;1.10;;
7799;SDS011;3944;47.984;7.960;2022-08-07T12:41:51;0.85;;;0.85;;
7799;SDS011;3944;47.984;7.960;2022-08-07T12:44:19;0.73;;;0.73;;
7799;SDS011;3944;47.984;7.960;2022-08-07T12:46:54;1.30;;;1.20;;
7799;SDS011;3944;47.984;7.960;2022-08-07T12:49:32;1.17;;;1.08;;
7799;SDS011;3944;47.984;7.960;2022-08-07T12:52:08;1.30;;;1.30;;
7799;SDS011;3944;47.984;7.960;2022-08-07T12:54:39;0.90;;;0.90;;
7799;SDS011;3944;47.984;7.960;2022-08-07T12:57:12;0.85;;;0.85;;
7799;SDS011;3944;47.984;7.960;2022-08-07T12:59:42;0.88;;;0.85;;
7799;SDS011;3944;47.984;7.960;2022-08-07T13:02:16;0.98;;;0.95;;
7799;SDS011;3944;47.984;7.960;2022-08-07T13:05:06;1.02;;;1.00;;
7799;SDS011;3944;47.984;7.960;2022-08-07T13:07:49;0.70;;;0.70;;
7799;SDS011;3944;47.984;7.960;2022-08-07T13:10:34;1.02;;;0.95;;
7799;SDS011;3944;47.984;7.960;2022-08-07T13:13:16;0.95;;;0.95;;
7799;SDS011;3944;47.984;7.960;2022-08-07T13:15:55;0.93;;;0.93;;
7799;SDS011;3944;47.984;7.960;2022-08-07T13:18:28;0.88;;;0.88;;
7799;SDS011;3944;47.984;7.960;2022-08-07T13:21:02;1.15;;;0.90;;
7799;SDS011;3944;47.984;7.960;2022-08-07T13:23:38;1.15;;;1.02;;
7799;SDS011;3944;47.984;7.960;2022-08-07T13:26:12;0.70;;;0.70;;
7799;SDS011;3944;47.984;7.960;2022-08-07T13:28:43;0.95;;;0.95;;
7799;SDS011;3944;47.984;7.960;2022-08-07T13:31:16;0.90;;;0.90;;
7799;SDS011;3944;47.984;7.960;2022-08-07T13:33:49;0.98;;;0.88;;
7799;SDS011;3944;47.984;7.960;2022-08-07T13:36:21;0.90;;;0.90;;
7799;SDS011;3944;47.984;7.960;2022-08-07T13:38:55;0.80;;;0.80;;
7799;SDS011;3944;47.984;7.960;2022-08-07T13:41:32;1.20;;;1.10;;
7799;SDS011;3944;47.984;7.960;2022-08-07T13:44:04;0.45;;;0.45;;
7799;SDS011;3944;47.984;7.960;2022-08-07T13:46:32;0.98;;;0.90;;
7799;SDS011;3944;47.984;7.960;2022-08-07T13:49:04;0.80;;;0.80;;
7799;SDS011;3944;47.984;7.960;2022-08-07T13:51:32;0.80;;;0.80;;
7799;SDS011;3944;47.984;7.960;2022-08-07T13:54:05;1.00;;;1.00;;
7799;SDS011;3944;47.984;7.960;2022-08-07T13:56:35;0.68;;;0.68;;
7799;SDS011;3944;47.984;7.960;2022-08-07T13:59:05;0.93;;;0.93;;
7799;SDS011;3944;47.984;7.960;2022-08-07T14:01:35;0.82;;;0.82;;
7799;SDS011;3944;47.984;7.960;2022-08-07T14:04:08;2.90;;;1.58;;
7799;SDS011;3944;47.984;7.960;2022-08-07T14:06:39;0.90;;;0.90;;
7799;SDS011;3944;47.984;7.960;2022-08-07T14:09:14;0.73;;;0.73;;
7799;SDS011;3944;47.984;7.960;2022-08-07T14:11:46;0.88;;;0.88;;
7799;SDS011;3944;47.984;7.960;2022-08-07T14:14:25;1.00;;;1.00;;
7799;SDS011;3944;47.984;7.960;2022-08-07T14:16:58;0.85;;;0.85;;
7799;SDS011;3944;47.984;7.960;2022-08-07T14:19:29;0.80;;;0.80;;
7799;SDS011;3944;47.984;7.960;2022-08-07T14:22:01;0.68;;;0.68;;
7799;SDS011;3944;47.984;7.960;2022-08-07T14:24:33;0.73;;;0.73;;
7799;SDS011;3944;47.984;7.960;2022-08-07T14:27:03;0.65;;;0.65;;
7799;SDS011;3944;47.984;7.960;2022-08-07T14:29:34;1.00;;;0.93;;
7799;SDS011;3944;47.984;7.960;2022-08-07T14:32:04;1.00;;;1.00;;
7799;SDS011;3944;47.984;7.960;2022-08-07T14:34:36;0.70;;;0.70;;
7799;SDS011;3944;47.984;7.960;2022-08-07T14:37:07;0.73;;;0.73;;
7799;SDS011;3944;47.984;7.960;2022-08-07T14:39:37;0.77;;;0.77;;
7799;SDS011;3944;47.984;7.960;2022-08-07T14:42:06;0.93;;;0.93;;
7799;SDS011;3944;47.984;7.960;2022-08-07T14:44:36;0.90;;;0.90;;
7799;SDS011;3944;47.984;7.960;2022-08-07T14:47:08;0.70;;;0.70;;
7799;SDS011;3944;47.984;7.960;2022-08-07T14:49:37;1.13;;;1.02;;
7799;SDS011;3944;47.984;7.960;2022-08-07T14:52:07;0.70;;;0.70;;
7799;SDS011;3944;47.984;7.960;2022-08-07T14:54:36;0.98;;;0.98;;
7799;SDS011;3944;47.984;7.960;2022-08-07T14:57:05;1.23;;;1.17;;
7799;SDS011;3944;47.984;7.960;2022-08-07T14:59:36;0.63;;;0.63;;
7799;SDS011;3944;47.984;7.960;2022-08-07T15:02:08;1.83;;;1.10;;
7799;SDS011;3944;47.984;7.960;2022-08-07T15:04:38;0.68;;;0.68;;
7799;SDS011;3944;47.984;7.960;2022-08-07T15:07:06;0.90;;;0.90;;
7799;SDS011;3944;47.984;7.960;2022-08-07T15:09:38;1.20;;;1.10;;
7799;SDS011;3944;47.984;7.960;2022-08-07T15:12:08;0.82;;;0.82;;
7799;SDS011;3944;47.984;7.960;2022-08-07T15:17:12;0.90;;;0.90;;
7799;SDS011;3944;47.984;7.960;2022-08-07T15:19:45;1.10;;;1.10;;
7799;SDS011;3944;47.984;7.960;2022-08-07T15:22:15;0.70;;;0.70;;
7799;SDS011;3944;47.984;7.960;2022-08-07T15:24:46;0.88;;;0.88;;
7799;SDS011;3944;47.984;7.960;2022-08-07T15:27:17;0.85;;;0.85;;
7799;SDS011;3944;47.984;7.960;2022-08-07T15:29:48;0.95;;;0.88;;
7799;SDS011;3944;47.984;7.960;2022-08-07T15:32:18;1.10;;;0.70;;
7799;SDS011;3944;47.984;7.960;2022-08-07T15:34:47;1.00;;;0.90;;
7799;SDS011;3944;47.984;7.960;2022-08-07T15:37:17;0.80;;;0.80;;
7799;SDS011;3944;47.984;7.960;2022-08-07T15:39:54;0.57;;;0.57;;
7799;SDS011;3944;47.984;7.960;2022-08-07T15:42:34;0.75;;;0.75;;
7799;SDS011;3944;47.984;7.960;2022-08-07T15:45:12;1.27;;;1.23;;
7799;SDS011;3944;47.984;7.960;2022-08-07T15:47:42;0.73;;;0.73;;
7799;SDS011;3944;47.984;7.960;2022-08-07T15:50:14;0.95;;;0.95;;